createdAt,value
2017-12-17T00:00:51.187Z,710.91
2017-12-17T00:01:51.906Z,710.97
2017-12-17T00:02:52.119Z,710.89
2017-12-17T00:03:52.587Z,710.80
2017-12-17T00:04:53.052Z,710.84
2017-12-17T00:05:53.516Z,710.93
2017-12-17T00:06:53.983Z,710.91
2017-12-17T00:07:54.449Z,710.90
2017-12-17T00:08:54.916Z,710.98
2017-12-17T00:09:55.412Z,710.97
2017-12-17T00:10:56.049Z,710.95
2017-12-17T00:11:56.361Z,710.95
2017-12-17T00:12:56.780Z,710.90
2017-12-17T00:13:57.243Z,710.94
2017-12-17T00:14:57.706Z,710.89
2017-12-17T00:15:58.174Z,710.93
2017-12-17T00:16:58.693Z,710.98
2017-12-17T00:17:59.103Z,710.98
2017-12-17T00:18:59.572Z,711.03
2017-12-17T00:20:00.037Z,710.94
2017-12-17T00:21:00.705Z,710.99
2017-12-17T00:22:00.966Z,710.96
2017-12-17T00:23:01.432Z,710.92
2017-12-17T00:24:01.899Z,710.92
2017-12-17T00:26:02.830Z,710.96
2017-12-17T00:27:03.345Z,710.93
2017-12-17T00:28:03.761Z,710.98
2017-12-17T00:29:04.228Z,710.97
2017-12-17T00:30:04.690Z,711.04
2017-12-17T00:31:05.196Z,711.07
2017-12-17T00:32:05.622Z,711.05
2017-12-17T00:33:06.087Z,710.97
2017-12-17T00:34:06.553Z,711.04
2017-12-17T00:35:07.019Z,710.96
2017-12-17T00:36:07.483Z,711.11
2017-12-17T00:37:08.205Z,711.01
2017-12-17T00:38:08.618Z,710.96
2017-12-17T00:39:08.880Z,710.97
2017-12-17T00:40:09.346Z,711.08
2017-12-17T00:42:10.529Z,711.07
2017-12-17T00:43:10.745Z,711.05
2017-12-17T00:44:11.216Z,711.01
2017-12-17T00:45:11.675Z,711.00
2017-12-17T00:46:12.139Z,711.11
2017-12-17T00:47:12.655Z,711.10
2017-12-17T00:48:13.071Z,711.01
2017-12-17T00:49:13.536Z,711.00
2017-12-17T00:50:14.002Z,711.06
2017-12-17T00:51:14.471Z,711.07
2017-12-17T00:52:14.934Z,711.07
2017-12-17T00:53:15.400Z,711.06
2017-12-17T00:54:15.863Z,711.14
2017-12-17T00:55:16.530Z,711.16
2017-12-17T00:56:16.795Z,711.15
2017-12-17T00:57:17.259Z,711.16
2017-12-17T00:58:17.724Z,711.19
2017-12-17T00:59:18.192Z,711.14
2017-12-17T01:01:19.123Z,711.19
2017-12-17T01:02:19.587Z,711.21
2017-12-17T01:03:20.056Z,711.18
2017-12-17T01:04:20.519Z,711.29
2017-12-17T01:05:20.986Z,711.23
2017-12-17T01:06:21.449Z,711.19
2017-12-17T01:07:21.969Z,711.20
2017-12-17T01:08:22.384Z,711.25
2017-12-17T01:09:22.846Z,711.24
2017-12-17T01:10:23.314Z,711.28
2017-12-17T01:11:23.778Z,711.28
2017-12-17T01:12:24.496Z,711.31
2017-12-17T01:13:24.707Z,711.28
2017-12-17T01:14:25.173Z,711.34
2017-12-17T01:15:25.637Z,711.29
2017-12-17T01:16:26.105Z,711.31
2017-12-17T01:17:26.570Z,711.30
2017-12-17T01:18:27.034Z,711.33
2017-12-17T01:19:27.705Z,711.35
2017-12-17T01:20:27.964Z,711.36
2017-12-17T01:21:28.432Z,711.35
2017-12-17T01:22:28.948Z,711.31
2017-12-17T01:23:29.364Z,711.33
2017-12-17T01:24:29.827Z,711.35
2017-12-17T01:25:30.296Z,711.31
2017-12-17T01:26:30.757Z,711.30
2017-12-17T01:27:31.273Z,711.37
2017-12-17T01:28:31.690Z,711.34
2017-12-17T01:29:32.156Z,711.34
2017-12-17T01:30:32.823Z,711.33
2017-12-17T01:31:33.086Z,711.30
2017-12-17T01:32:33.552Z,711.34
2017-12-17T01:33:34.019Z,711.29
2017-12-17T01:34:34.485Z,711.36
2017-12-17T01:35:34.973Z,711.30
2017-12-17T01:36:35.412Z,711.33
2017-12-17T01:37:35.878Z,711.34
2017-12-17T01:38:36.341Z,711.30
2017-12-17T01:39:37.013Z,711.30
2017-12-17T01:40:37.274Z,711.33
2017-12-17T01:41:37.747Z,711.33
2017-12-17T01:42:38.205Z,711.31
2017-12-17T01:43:38.875Z,711.32
2017-12-17T01:44:39.137Z,711.29
2017-12-17T01:45:39.603Z,711.33
2017-12-17T01:46:40.067Z,711.35
2017-12-17T01:47:40.583Z,711.40
2017-12-17T01:49:41.465Z,711.36
2017-12-17T01:50:41.929Z,711.30
2017-12-17T01:51:42.395Z,711.31
2017-12-17T01:52:42.860Z,711.33
2017-12-17T01:53:43.325Z,711.30
2017-12-17T01:54:43.995Z,711.28
2017-12-17T01:55:44.257Z,711.27
2017-12-17T01:56:44.731Z,711.30
2017-12-17T01:57:45.239Z,711.31
2017-12-17T01:58:45.652Z,711.28
2017-12-17T01:59:46.119Z,711.26
2017-12-17T02:00:46.585Z,711.30
2017-12-17T02:01:47.049Z,711.28
2017-12-17T02:02:47.514Z,711.32
2017-12-17T02:03:47.980Z,711.31
2017-12-17T02:04:48.448Z,711.37
2017-12-17T02:05:48.913Z,711.37
2017-12-17T02:06:49.375Z,711.38
2017-12-17T02:07:49.893Z,711.37
2017-12-17T02:08:50.307Z,711.36
2017-12-17T02:09:50.773Z,711.35
2017-12-17T02:10:51.239Z,711.33
2017-12-17T02:11:51.703Z,711.37
2017-12-17T02:12:52.169Z,711.38
2017-12-17T02:13:52.634Z,711.38
2017-12-17T02:14:53.302Z,711.36
2017-12-17T02:15:53.563Z,711.36
2017-12-17T02:16:54.034Z,711.32
2017-12-17T02:17:54.953Z,711.36
2017-12-17T02:18:55.163Z,711.37
2017-12-17T02:19:55.428Z,711.37
2017-12-17T02:20:56.094Z,711.35
2017-12-17T02:21:56.359Z,711.41
2017-12-17T02:22:56.874Z,711.33
2017-12-17T02:23:57.289Z,711.35
2017-12-17T02:24:57.754Z,711.32
2017-12-17T02:25:58.424Z,711.35
2017-12-17T02:26:58.887Z,711.35
2017-12-17T02:27:59.404Z,711.24
2017-12-17T02:28:59.616Z,711.27
2017-12-17T02:30:00.087Z,711.33
2017-12-17T02:31:00.546Z,711.35
2017-12-17T02:32:01.011Z,711.30
2017-12-17T02:33:01.479Z,711.38
2017-12-17T02:34:01.944Z,711.38
2017-12-17T02:35:02.409Z,711.35
2017-12-17T02:36:03.077Z,711.38
2017-12-17T02:37:03.340Z,711.23
2017-12-17T02:38:03.807Z,711.28
2017-12-17T02:39:04.272Z,711.35
2017-12-17T02:40:04.740Z,711.34
2017-12-17T02:41:05.406Z,711.39
2017-12-17T02:42:05.668Z,711.29
2017-12-17T02:43:06.184Z,711.24
2017-12-17T02:44:06.600Z,711.25
2017-12-17T02:45:07.063Z,711.39
2017-12-17T02:46:07.531Z,711.34
2017-12-17T02:47:07.997Z,711.34
2017-12-17T02:48:08.461Z,711.33
2017-12-17T02:49:08.925Z,711.34
2017-12-17T02:50:09.394Z,711.34
2017-12-17T02:51:09.857Z,711.41
2017-12-17T02:52:10.323Z,711.41
2017-12-17T02:53:10.839Z,711.41
2017-12-17T02:54:11.254Z,711.48
2017-12-17T02:55:11.719Z,711.39
2017-12-17T02:56:12.183Z,711.33
2017-12-17T02:57:12.650Z,711.37
2017-12-17T02:58:13.115Z,711.35
2017-12-17T02:59:13.580Z,711.34
2017-12-17T03:00:14.047Z,711.31
2017-12-17T03:02:14.980Z,711.31
2017-12-17T03:03:15.441Z,711.29
2017-12-17T03:04:15.910Z,711.34
2017-12-17T03:05:16.374Z,711.36
2017-12-17T03:06:16.844Z,711.32
2017-12-17T03:07:17.305Z,711.41
2017-12-17T03:08:17.772Z,711.32
2017-12-17T03:09:18.236Z,711.34
2017-12-17T03:10:18.701Z,711.38
2017-12-17T03:11:19.167Z,711.35
2017-12-17T03:12:19.636Z,711.42
2017-12-17T03:13:20.098Z,711.34
2017-12-17T03:14:20.568Z,711.37
2017-12-17T03:15:21.028Z,711.40
2017-12-17T03:16:21.494Z,711.34
2017-12-17T03:18:22.435Z,711.33
2017-12-17T03:20:23.356Z,711.39
2017-12-17T03:21:23.825Z,711.43
2017-12-17T03:22:24.286Z,711.35
2017-12-17T03:23:24.804Z,711.41
2017-12-17T03:24:25.219Z,711.48
2017-12-17T03:25:25.687Z,711.45
2017-12-17T03:26:26.150Z,711.39
2017-12-17T03:27:26.614Z,711.42
2017-12-17T03:28:27.080Z,711.42
2017-12-17T03:29:27.546Z,711.38
2017-12-17T03:30:28.013Z,711.35
2017-12-17T03:31:28.476Z,711.40
2017-12-17T03:32:28.943Z,711.34
2017-12-17T03:33:29.406Z,711.32
2017-12-17T03:34:29.874Z,711.36
2017-12-17T03:35:30.338Z,711.41
2017-12-17T03:36:30.804Z,711.44
2017-12-17T03:37:31.277Z,711.36
2017-12-17T03:38:31.734Z,711.40
2017-12-17T03:39:32.200Z,711.34
2017-12-17T03:40:32.667Z,711.28
2017-12-17T03:41:33.183Z,711.30
2017-12-17T03:42:33.601Z,711.36
2017-12-17T03:43:34.114Z,711.30
2017-12-17T03:44:34.528Z,711.42
2017-12-17T03:45:34.996Z,711.42
2017-12-17T03:46:35.662Z,711.36
2017-12-17T03:47:35.924Z,711.32
2017-12-17T03:48:36.389Z,711.31
2017-12-17T03:49:37.059Z,711.32
2017-12-17T03:50:37.322Z,711.34
2017-12-17T03:51:37.787Z,711.35
2017-12-17T03:52:38.251Z,711.34
2017-12-17T03:53:38.768Z,711.27
2017-12-17T03:54:39.183Z,711.31
2017-12-17T03:55:39.678Z,711.35
2017-12-17T03:56:40.116Z,711.28
2017-12-17T03:57:40.579Z,711.35
2017-12-17T03:58:41.047Z,711.29
2017-12-17T03:59:41.712Z,711.33
2017-12-17T04:00:41.976Z,711.29
2017-12-17T04:01:42.442Z,711.37
2017-12-17T04:02:42.907Z,711.26
2017-12-17T04:03:43.373Z,711.37
2017-12-17T04:04:43.838Z,711.42
2017-12-17T04:05:44.303Z,711.41
2017-12-17T04:06:44.770Z,711.36
2017-12-17T04:07:45.236Z,711.42
2017-12-17T04:08:45.953Z,711.48
2017-12-17T04:09:46.168Z,711.40
2017-12-17T04:10:46.633Z,711.35
2017-12-17T04:11:47.095Z,711.45
2017-12-17T04:12:47.562Z,711.56
2017-12-17T04:13:48.028Z,711.48
2017-12-17T04:14:48.494Z,711.41
2017-12-17T04:15:48.958Z,711.48
2017-12-17T04:16:49.424Z,711.50
2017-12-17T04:17:49.889Z,711.45
2017-12-17T04:18:50.356Z,711.50
2017-12-17T04:19:50.819Z,711.53
2017-12-17T04:20:51.287Z,711.49
2017-12-17T04:21:51.751Z,711.49
2017-12-17T04:22:52.216Z,711.42
2017-12-17T04:23:52.680Z,711.46
2017-12-17T04:24:53.148Z,711.48
2017-12-17T04:25:53.615Z,711.56
2017-12-17T04:27:54.544Z,711.45
2017-12-17T04:28:55.211Z,711.51
2017-12-17T04:29:55.476Z,711.49
2017-12-17T04:30:55.940Z,711.50
2017-12-17T04:31:56.407Z,711.46
2017-12-17T04:32:56.870Z,711.56
2017-12-17T04:33:57.336Z,711.57
2017-12-17T04:34:57.802Z,711.60
2017-12-17T04:35:58.266Z,711.46
2017-12-17T04:36:58.732Z,711.64
2017-12-17T04:37:59.400Z,711.63
2017-12-17T04:38:59.715Z,711.63
2017-12-17T04:40:00.130Z,711.62
2017-12-17T04:41:00.595Z,711.63
2017-12-17T04:42:01.059Z,711.51
2017-12-17T04:43:01.524Z,711.53
2017-12-17T04:44:01.989Z,711.57
2017-12-17T04:45:02.458Z,711.49
2017-12-17T04:46:02.921Z,711.53
2017-12-17T04:47:03.385Z,711.58
2017-12-17T04:48:03.853Z,711.64
2017-12-17T04:49:04.367Z,711.46
2017-12-17T04:50:04.784Z,711.59
2017-12-17T04:51:05.248Z,711.54
2017-12-17T04:52:05.719Z,711.58
2017-12-17T04:53:06.177Z,711.52
2017-12-17T04:54:06.643Z,711.56
2017-12-17T04:55:07.111Z,711.54
2017-12-17T04:56:07.574Z,711.63
2017-12-17T04:57:08.039Z,711.66
2017-12-17T04:58:08.505Z,711.61
2017-12-17T04:59:09.020Z,711.51
2017-12-17T05:00:09.435Z,711.53
2017-12-17T05:01:09.900Z,711.59
2017-12-17T05:02:10.365Z,711.60
2017-12-17T05:03:10.835Z,711.52
2017-12-17T05:04:11.295Z,711.57
2017-12-17T05:05:11.761Z,711.64
2017-12-17T05:06:12.227Z,711.56
2017-12-17T05:07:12.693Z,711.58
2017-12-17T05:08:13.156Z,711.67
2017-12-17T05:09:13.675Z,711.65
2017-12-17T05:10:14.090Z,711.67
2017-12-17T05:11:14.755Z,711.72
2017-12-17T05:12:15.018Z,711.69
2017-12-17T05:13:15.687Z,711.67
2017-12-17T05:14:15.950Z,711.69
2017-12-17T05:15:16.414Z,711.77
2017-12-17T05:17:17.349Z,711.76
2017-12-17T05:18:18.013Z,711.83
2017-12-17T05:19:18.276Z,711.76
2017-12-17T05:20:18.739Z,711.70
2017-12-17T05:21:19.204Z,711.68
2017-12-17T05:22:19.670Z,711.69
2017-12-17T05:23:20.134Z,711.79
2017-12-17T05:24:20.600Z,711.73
2017-12-17T05:25:21.065Z,711.60
2017-12-17T05:26:21.530Z,711.67
2017-12-17T05:27:21.996Z,711.72
2017-12-17T05:28:22.463Z,711.73
2017-12-17T05:29:22.974Z,711.77
2017-12-17T05:30:23.392Z,711.73
2017-12-17T05:31:23.856Z,711.76
2017-12-17T05:32:24.323Z,711.77
2017-12-17T05:33:24.788Z,711.84
2017-12-17T05:34:25.252Z,711.80
2017-12-17T05:35:25.715Z,711.78
2017-12-17T05:36:26.181Z,711.73
2017-12-17T05:37:26.648Z,711.74
2017-12-17T05:38:27.111Z,711.77
2017-12-17T05:39:27.576Z,711.84
2017-12-17T05:40:28.446Z,711.81
2017-12-17T05:41:28.522Z,711.81
2017-12-17T05:42:29.174Z,711.82
2017-12-17T05:43:29.437Z,711.95
2017-12-17T05:44:29.954Z,712.01
2017-12-17T05:45:30.366Z,711.96
2017-12-17T05:46:30.830Z,711.91
2017-12-17T05:47:31.499Z,711.83
2017-12-17T05:48:31.764Z,711.89
2017-12-17T05:49:32.226Z,711.86
2017-12-17T05:50:32.693Z,711.89
2017-12-17T05:51:33.155Z,711.94
2017-12-17T05:52:33.823Z,711.92
2017-12-17T05:53:34.087Z,711.90
2017-12-17T05:54:34.550Z,711.95
2017-12-17T05:55:35.019Z,711.84
2017-12-17T05:56:35.481Z,711.88
2017-12-17T05:57:36.149Z,711.80
2017-12-17T05:59:36.927Z,711.88
2017-12-17T06:00:37.545Z,711.93
2017-12-17T06:01:38.007Z,711.99
2017-12-17T06:02:38.675Z,711.98
2017-12-17T06:03:38.735Z,711.95
2017-12-17T06:04:39.201Z,712.04
2017-12-17T06:05:39.666Z,712.01
2017-12-17T06:06:40.132Z,712.03
2017-12-17T06:07:40.596Z,712.03
2017-12-17T06:08:41.059Z,711.96
2017-12-17T06:09:41.576Z,711.98
2017-12-17T06:10:41.992Z,712.00
2017-12-17T06:11:42.456Z,711.99
2017-12-17T06:12:42.920Z,712.02
2017-12-17T06:13:43.385Z,712.00
2017-12-17T06:14:43.902Z,712.03
2017-12-17T06:15:44.316Z,712.05
2017-12-17T06:16:44.778Z,712.03
2017-12-17T06:17:45.244Z,712.07
2017-12-17T06:18:45.709Z,712.11
2017-12-17T06:19:46.176Z,712.11
2017-12-17T06:20:46.846Z,712.14
2017-12-17T06:21:47.104Z,712.10
2017-12-17T06:22:47.574Z,712.07
2017-12-17T06:23:48.034Z,712.18
2017-12-17T06:24:48.550Z,712.14
2017-12-17T06:25:49.169Z,712.15
2017-12-17T06:26:49.429Z,712.16
2017-12-17T06:27:50.100Z,712.17
2017-12-17T06:28:50.360Z,712.18
2017-12-17T06:29:50.823Z,712.19
2017-12-17T06:30:51.287Z,712.17
2017-12-17T06:31:51.755Z,712.15
2017-12-17T06:32:52.220Z,712.13
2017-12-17T06:33:52.683Z,712.22
2017-12-17T06:34:53.208Z,712.14
2017-12-17T06:35:53.614Z,712.23
2017-12-17T06:36:54.078Z,712.18
2017-12-17T06:37:54.744Z,712.23
2017-12-17T06:38:55.211Z,712.17
2017-12-17T06:39:55.675Z,712.14
2017-12-17T06:43:57.336Z,712.19
2017-12-17T06:44:57.861Z,712.19
2017-12-17T06:45:58.278Z,712.23
2017-12-17T06:46:58.726Z,712.21
2017-12-17T06:50:00.188Z,712.23
2017-12-17T06:51:00.598Z,712.22
2017-12-17T06:52:01.467Z,712.23
2017-12-17T06:53:01.516Z,712.28
2017-12-17T06:54:01.980Z,712.25
2017-12-17T06:55:02.444Z,712.32
2017-12-17T06:56:02.912Z,712.30
2017-12-17T06:57:03.374Z,712.21
2017-12-17T06:58:03.838Z,712.24
2017-12-17T06:59:04.306Z,712.23
2017-12-17T07:00:04.817Z,712.19
2017-12-17T07:01:05.233Z,712.14
2017-12-17T07:02:05.698Z,712.14
2017-12-17T07:03:06.163Z,712.13
2017-12-17T07:04:06.629Z,712.09
2017-12-17T07:05:07.090Z,712.27
2017-12-17T07:06:07.558Z,712.24
2017-12-17T07:07:08.023Z,712.31
2017-12-17T07:08:08.488Z,712.23
2017-12-17T07:09:08.953Z,712.31
2017-12-17T07:10:09.419Z,712.28
2017-12-17T07:11:09.882Z,712.31
2017-12-17T07:12:10.347Z,712.37
2017-12-17T07:13:10.812Z,712.40
2017-12-17T07:14:11.275Z,712.24
2017-12-17T07:15:11.807Z,712.25
2017-12-17T07:16:12.218Z,712.22
2017-12-17T07:17:12.682Z,712.30
2017-12-17T07:18:13.348Z,712.42
2017-12-17T07:19:13.613Z,712.45
2017-12-17T07:20:14.114Z,712.43
2017-12-17T07:21:14.540Z,712.48
2017-12-17T07:22:15.006Z,712.50
2017-12-17T07:23:15.472Z,712.39
2017-12-17T07:25:28.175Z,712.49
2017-12-17T07:26:16.865Z,712.52
2017-12-17T07:27:17.329Z,712.44
2017-12-17T07:28:17.798Z,712.46
2017-12-17T07:29:18.260Z,712.46
2017-12-17T07:30:18.713Z,712.42
2017-12-17T07:32:19.657Z,712.38
2017-12-17T07:33:20.119Z,712.47
2017-12-17T07:34:20.589Z,712.47
2017-12-17T07:35:33.180Z,712.41
2017-12-17T07:37:21.972Z,712.37
2017-12-17T07:39:22.910Z,712.48
2017-12-17T07:40:23.374Z,712.55
2017-12-17T07:41:23.827Z,712.58
2017-12-17T07:43:24.771Z,712.50
2017-12-17T07:44:25.239Z,712.44
2017-12-17T07:45:25.750Z,712.49
2017-12-17T07:46:26.167Z,712.49
2017-12-17T07:47:26.632Z,712.57
2017-12-17T07:48:27.084Z,712.56
2017-12-17T07:49:27.561Z,712.58
2017-12-17T07:51:28.491Z,712.49
2017-12-17T07:53:29.422Z,712.55
2017-12-17T07:54:29.887Z,712.65
2017-12-17T07:55:30.353Z,712.59
2017-12-17T07:56:30.817Z,712.55
2017-12-17T07:57:31.284Z,712.55
2017-12-17T07:59:32.201Z,712.59
2017-12-17T08:00:44.199Z,712.61
2017-12-17T08:01:33.343Z,712.55
2017-12-17T08:02:34.010Z,712.58
2017-12-17T08:03:34.072Z,712.54
2017-12-17T08:04:34.536Z,712.58
2017-12-17T08:05:47.241Z,712.66
2017-12-17T08:06:35.461Z,712.57
2017-12-17T08:07:35.930Z,712.67
2017-12-17T08:08:36.397Z,712.57
2017-12-17T08:10:37.365Z,712.70
2017-12-17T08:12:38.257Z,712.62
2017-12-17T08:13:38.721Z,712.75
2017-12-17T08:15:51.224Z,712.73
2017-12-17T08:16:40.320Z,712.67
2017-12-17T08:17:40.570Z,712.79
2017-12-17T08:18:41.249Z,712.85
2017-12-17T08:19:41.512Z,712.83
2017-12-17T08:20:42.028Z,712.81
2017-12-17T08:21:42.428Z,712.82
2017-12-17T08:22:42.908Z,712.85
2017-12-17T08:23:43.372Z,712.93
2017-12-17T08:25:44.302Z,712.87
2017-12-17T08:26:44.774Z,712.99
2017-12-17T08:28:45.687Z,713.01
2017-12-17T08:29:46.163Z,712.98
2017-12-17T08:30:46.681Z,712.97
2017-12-17T08:31:47.093Z,712.97
2017-12-17T08:32:47.547Z,712.93
2017-12-17T08:33:48.426Z,712.94
2017-12-17T08:34:48.491Z,712.99
2017-12-17T08:35:48.955Z,713.05
2017-12-17T08:36:49.424Z,712.95
2017-12-17T08:37:49.885Z,712.95
2017-12-17T08:38:50.351Z,713.00
2017-12-17T08:39:50.803Z,712.99
2017-12-17T08:41:03.264Z,713.03
2017-12-17T08:41:51.748Z,713.13
2017-12-17T08:42:52.209Z,713.11
2017-12-17T08:43:52.678Z,713.07
2017-12-17T08:46:54.075Z,713.18
2017-12-17T08:47:54.942Z,713.15
2017-12-17T08:49:55.467Z,713.18
2017-12-17T08:50:55.971Z,713.20
2017-12-17T08:51:56.401Z,713.24
2017-12-17T08:52:56.866Z,713.23
2017-12-17T08:55:58.264Z,713.24
2017-12-17T08:56:58.726Z,713.20
2017-12-17T08:57:59.580Z,713.20
2017-12-17T08:58:59.655Z,713.18
2017-12-17T09:00:00.322Z,713.23
2017-12-17T09:03:01.517Z,713.20
2017-12-17T09:04:01.984Z,713.17
2017-12-17T09:05:02.447Z,713.18
2017-12-17T09:06:02.917Z,713.23
2017-12-17T09:07:03.572Z,713.17
2017-12-17T09:08:03.843Z,713.23
2017-12-17T09:09:04.308Z,713.22
2017-12-17T09:10:04.773Z,713.22
2017-12-17T09:11:17.279Z,713.22
2017-12-17T09:12:05.753Z,713.16
2017-12-17T09:13:06.170Z,713.27
2017-12-17T09:14:06.638Z,713.24
2017-12-17T09:15:07.101Z,713.26
2017-12-17T09:16:07.769Z,713.41
2017-12-17T09:17:08.032Z,713.50
2017-12-17T09:18:08.485Z,713.45
2017-12-17T09:19:09.166Z,713.50
2017-12-17T09:20:09.428Z,713.50
2017-12-17T09:22:10.412Z,713.53
2017-12-17T09:24:11.695Z,713.46
2017-12-17T09:25:11.747Z,713.36
2017-12-17T09:26:12.222Z,713.46
2017-12-17T09:27:12.740Z,713.43
2017-12-17T09:28:13.154Z,713.41
2017-12-17T09:29:13.610Z,713.39
2017-12-17T09:30:14.084Z,713.38
2017-12-17T09:31:14.551Z,713.40
2017-12-17T09:33:15.483Z,713.59
2017-12-17T09:35:16.400Z,713.52
2017-12-17T09:36:16.881Z,713.54
2017-12-17T09:38:17.811Z,713.59
2017-12-17T09:39:18.279Z,713.47
2017-12-17T09:40:18.800Z,713.54
2017-12-17T09:41:19.411Z,713.48
2017-12-17T09:42:19.711Z,713.58
2017-12-17T09:46:21.535Z,713.58
2017-12-17T09:47:22.051Z,713.51
2017-12-17T09:48:22.468Z,713.61
2017-12-17T09:49:23.135Z,713.58
2017-12-17T09:50:23.398Z,713.57
2017-12-17T09:52:36.321Z,713.51
2017-12-17T09:53:24.782Z,713.50
2017-12-17T09:54:25.260Z,713.43
2017-12-17T09:55:25.725Z,713.49
2017-12-17T09:56:26.193Z,713.57
2017-12-17T09:58:27.326Z,713.43
2017-12-17T09:59:27.597Z,713.44
2017-12-17T10:00:28.041Z,713.44
2017-12-17T10:01:28.725Z,713.41
2017-12-17T10:02:28.987Z,713.42
2017-12-17T10:03:29.452Z,713.47
2017-12-17T10:04:29.909Z,713.42
2017-12-17T10:05:30.386Z,713.38
2017-12-17T10:06:30.856Z,713.35
2017-12-17T10:07:31.576Z,713.41
2017-12-17T10:09:32.247Z,713.49
2017-12-17T10:10:32.711Z,713.47
2017-12-17T10:11:33.166Z,713.47
2017-12-17T10:12:33.899Z,713.59
2017-12-17T10:13:34.110Z,713.58
2017-12-17T10:14:34.579Z,713.41
2017-12-17T10:15:35.028Z,713.51
2017-12-17T10:16:35.508Z,713.51
2017-12-17T10:17:35.982Z,713.50
2017-12-17T10:19:36.903Z,713.47
2017-12-17T10:21:37.837Z,713.63
2017-12-17T10:22:38.339Z,713.46
2017-12-17T10:23:38.970Z,713.46
2017-12-17T10:24:39.236Z,713.57
2017-12-17T10:25:39.702Z,713.51
2017-12-17T10:26:40.166Z,713.55
2017-12-17T10:27:40.631Z,713.63
2017-12-17T10:28:41.101Z,713.71
2017-12-17T10:29:41.568Z,713.55
2017-12-17T10:30:42.233Z,713.44
2017-12-17T10:31:42.496Z,713.32
2017-12-17T10:32:43.013Z,713.51
2017-12-17T10:33:43.617Z,713.53
2017-12-17T10:35:44.358Z,713.62
2017-12-17T10:37:45.324Z,713.63
2017-12-17T10:38:45.759Z,713.55
2017-12-17T10:39:46.227Z,713.58
2017-12-17T10:40:46.686Z,713.58
2017-12-17T10:43:48.089Z,713.64
2017-12-17T10:44:48.543Z,713.61
2017-12-17T10:45:49.225Z,713.54
2017-12-17T10:46:49.491Z,713.59
2017-12-17T10:47:49.956Z,713.61
2017-12-17T10:48:50.420Z,713.69
2017-12-17T10:49:50.890Z,713.66
2017-12-17T10:50:51.371Z,713.67
2017-12-17T10:51:51.810Z,713.72
2017-12-17T10:52:52.339Z,713.72
2017-12-17T10:53:52.752Z,713.68
2017-12-17T10:54:53.218Z,713.68
2017-12-17T10:55:53.672Z,713.71
2017-12-17T10:56:54.151Z,713.70
2017-12-17T10:57:54.622Z,713.63
2017-12-17T10:59:55.553Z,713.70
2017-12-17T11:00:56.220Z,713.66
2017-12-17T11:01:56.487Z,713.66
2017-12-17T11:02:56.990Z,713.72
2017-12-17T11:03:57.418Z,713.64
2017-12-17T11:04:57.886Z,713.61
2017-12-17T11:06:58.814Z,713.62
2017-12-17T11:08:11.362Z,713.63
2017-12-17T11:08:59.751Z,713.67
2017-12-17T11:10:00.217Z,713.65
2017-12-17T11:11:00.682Z,713.68
2017-12-17T11:12:01.147Z,713.72
2017-12-17T11:14:02.071Z,713.62
2017-12-17T11:15:02.549Z,713.54
2017-12-17T11:16:03.217Z,713.58
2017-12-17T11:17:03.482Z,713.55
2017-12-17T11:19:04.419Z,713.56
2017-12-17T11:20:04.881Z,713.61
2017-12-17T11:22:05.816Z,713.65
2017-12-17T11:23:06.279Z,713.60
2017-12-17T11:24:06.947Z,713.65
2017-12-17T11:25:07.200Z,713.56
2017-12-17T11:26:07.683Z,713.58
2017-12-17T11:27:08.146Z,713.58
2017-12-17T11:28:08.666Z,713.60
2017-12-17T11:29:09.080Z,713.64
2017-12-17T11:31:10.013Z,713.63
2017-12-17T11:32:10.465Z,713.60
2017-12-17T11:33:10.998Z,713.63
2017-12-17T11:34:11.411Z,713.65
2017-12-17T11:35:11.882Z,713.64
2017-12-17T11:36:12.536Z,713.66
2017-12-17T11:37:12.811Z,713.65
2017-12-17T11:38:13.331Z,713.57
2017-12-17T11:39:13.744Z,713.58
2017-12-17T11:40:14.212Z,713.59
2017-12-17T11:41:14.691Z,713.54
2017-12-17T11:42:15.148Z,713.63
2017-12-17T11:43:16.055Z,713.55
2017-12-17T11:44:16.080Z,713.63
2017-12-17T11:46:17.014Z,713.62
2017-12-17T11:47:17.471Z,713.62
2017-12-17T11:48:29.368Z,713.65
2017-12-17T11:50:18.880Z,713.59
2017-12-17T11:51:19.348Z,713.58
2017-12-17T11:52:19.813Z,713.59
2017-12-17T11:53:20.283Z,713.61
2017-12-17T11:54:20.737Z,713.56
2017-12-17T11:56:21.680Z,713.63
2017-12-17T11:57:22.152Z,713.51
2017-12-17T11:58:22.615Z,713.65
2017-12-17T12:00:23.551Z,713.58
2017-12-17T12:03:25.001Z,713.68
2017-12-17T12:05:25.874Z,713.60
2017-12-17T12:06:26.352Z,713.62
2017-12-17T12:07:26.818Z,713.62
2017-12-17T12:08:27.294Z,713.54
2017-12-17T12:09:27.755Z,713.51
2017-12-17T12:10:28.221Z,713.41
2017-12-17T12:11:28.688Z,713.46
2017-12-17T12:12:29.142Z,713.47
2017-12-17T12:13:30.030Z,713.39
2017-12-17T12:16:31.011Z,713.41
2017-12-17T12:18:32.016Z,713.50
2017-12-17T12:19:32.426Z,713.51
2017-12-17T12:20:32.891Z,713.51
2017-12-17T12:21:33.361Z,713.52
2017-12-17T12:22:34.433Z,713.52
2017-12-17T12:23:34.538Z,713.59
2017-12-17T12:24:34.837Z,713.54
2017-12-17T12:25:35.227Z,713.53
2017-12-17T12:26:35.698Z,713.57
2017-12-17T12:27:36.150Z,713.50
2017-12-17T12:30:37.565Z,713.50
2017-12-17T12:31:38.031Z,713.51
2017-12-17T12:32:38.705Z,713.55
2017-12-17T12:33:38.967Z,713.49
2017-12-17T12:34:39.625Z,713.50
2017-12-17T12:35:39.900Z,713.59
2017-12-17T12:38:53.445Z,713.51
2017-12-17T12:39:41.771Z,713.43
2017-12-17T12:40:42.644Z,713.52
2017-12-17T12:41:42.706Z,713.52
2017-12-17T12:43:43.690Z,713.50
2017-12-17T12:44:44.110Z,713.48
2017-12-17T12:45:44.764Z,713.60
2017-12-17T12:46:45.245Z,713.57
2017-12-17T12:47:45.509Z,713.54
2017-12-17T12:49:46.444Z,713.56
2017-12-17T12:50:46.911Z,713.60
2017-12-17T12:51:47.379Z,713.49
2017-12-17T12:52:47.835Z,713.62
2017-12-17T12:53:48.316Z,713.56
2017-12-17T12:55:49.248Z,713.61
2017-12-17T12:56:49.712Z,713.56
2017-12-17T12:57:50.184Z,713.53
2017-12-17T12:58:50.702Z,713.59
2017-12-17T12:59:51.119Z,713.55
2017-12-17T13:00:51.790Z,713.46
2017-12-17T13:01:52.055Z,713.56
2017-12-17T13:02:52.526Z,713.52
2017-12-17T13:03:52.977Z,713.47
2017-12-17T13:05:53.924Z,713.54
2017-12-17T13:06:54.395Z,713.45
2017-12-17T13:07:54.845Z,713.48
2017-12-17T13:08:55.327Z,713.36
2017-12-17T13:09:55.795Z,713.39
2017-12-17T13:10:56.268Z,713.60
2017-12-17T13:11:56.727Z,713.50
2017-12-17T13:12:57.400Z,713.64
2017-12-17T13:14:58.118Z,713.52
2017-12-17T13:16:59.066Z,713.52
2017-12-17T13:17:59.533Z,713.41
2017-12-17T13:18:59.989Z,713.48
2017-12-17T13:20:00.519Z,713.53
2017-12-17T13:22:01.604Z,713.45
2017-12-17T13:23:02.073Z,713.45
2017-12-17T13:25:14.493Z,713.59
2017-12-17T13:26:03.259Z,713.41
2017-12-17T13:28:04.208Z,713.45
2017-12-17T13:30:05.179Z,713.55
2017-12-17T13:31:05.608Z,713.49
2017-12-17T13:32:06.278Z,713.57
2017-12-17T13:33:06.543Z,713.53
2017-12-17T13:34:07.009Z,713.48
2017-12-17T13:36:07.945Z,713.49
2017-12-17T13:37:08.401Z,713.57
2017-12-17T13:38:09.083Z,713.55
2017-12-17T13:40:09.867Z,713.58
2017-12-17T13:41:10.472Z,713.68
2017-12-17T13:42:10.749Z,713.70
2017-12-17T13:43:11.219Z,713.71
2017-12-17T13:44:11.685Z,713.69
2017-12-17T13:45:12.150Z,713.66
2017-12-17T13:47:13.088Z,713.64
2017-12-17T13:48:13.539Z,713.64
2017-12-17T13:49:14.022Z,713.63
2017-12-17T13:50:14.488Z,713.68
2017-12-17T13:51:14.956Z,713.67
2017-12-17T13:52:15.421Z,713.65
2017-12-17T13:53:15.889Z,713.71
2017-12-17T13:54:16.357Z,713.70
2017-12-17T13:55:17.024Z,713.69
2017-12-17T13:56:17.291Z,713.72
2017-12-17T13:57:17.758Z,713.67
2017-12-17T13:58:18.238Z,713.63
2017-12-17T13:59:18.681Z,713.63
2017-12-17T14:00:19.158Z,713.63